Ville Platte, Louisiana
Current Conditions -  °F | °C
As of 6:15 PM on Thursday 27 Nov 2014 (Local Time) from KOPL Reporting Station
Clear Clear  
Wind Chill: 46°   Ceiling: Unl
Heat Index: 48°   Visibility: 10mi
Dew Point: 34°   Wind: 5mph
Humidity: 59%   Direction: 20°NNE
Pressure: 30.45"   Gusts: NA
Location:  30.69°N, 92.28°W
Report Text: KOPL 280015Z AUTO 02004KT 10SM CLR 09/01 A3045 RMK AO2 T00880012
Loading
Personal Weather Stations






























Interactive Weather Map New forecast layout! Learn more

10-Day Weather Forecast

Advertisements
Track Severe Weather on mobile